Oasis of the Seas — C6XS7 — position and weather

sailwx.info

Track history (hours):
 
Tides and Currents Weather Stations Pressure Air Temp Water Temp Dewpoint Dewpoint Depression Visibility Wind Speed Wind Dir Waves Ship Positions

Oasis of the Seas

Last reported at 2014-Oct-02 03:31 UTC. Time now 2014-Oct-02 04:21 UTC.
Position N 51°54' E 004°17'.

Length 360 m; draft 9.3 m.

Type: Passenger vessel. MMSI: 311020600.

Date/timePositionNaut miles runAvg speedWind from/ knotsBaromVisibWave heightAir tempDewpointWater temp
2014-Oct-02 03:31N 51°54' E 004°17'0 0.0
2014-Oct-02 02:31N 51°54' E 004°17'0 0.0
2014-Oct-02 01:31N 51°54' E 004°17'0 0.0
2014-Oct-02 00:31N 51°54' E 004°17'0 0.0
2014-Oct-01 23:31N 51°54' E 004°17'0 0.0
2014-Oct-01 22:31N 51°54' E 004°17'0 0.0
2014-Oct-01 21:32N 51°54' E 004°17'0 0.0
2014-Oct-01 20:32N 51°54' E 004°17'0 0.0
2014-Oct-01 19:32N 51°54' E 004°17'0 0.0
2014-Oct-01 18:32N 51°54' E 004°17'0 0.0
2014-Oct-01 17:32N 51°54' E 004°17'0 0.0
2014-Oct-01 16:32N 51°54' E 004°17'0 0.0
2014-Oct-01 15:32N 51°54' E 004°17'0 0.0
2014-Oct-01 14:29N 51°54' E 004°17'0 0.0
2014-Oct-01 13:33N 51°54' E 004°17'0 0.0
2014-Oct-01 12:29N 51°54' E 004°17'0 0.0
2014-Oct-01 11:32N 51°54' E 004°17'0 0.0
2014-Oct-01 10:32N 51°54' E 004°17'0 0.0
2014-Oct-01 09:32N 51°54' E 004°17'0 0.0
2014-Oct-01 08:29N 51°54' E 004°17'0 0.0
2014-Oct-01 07:32N 51°54' E 004°17'0 0.0
2014-Oct-01 06:32N 51°54' E 004°17'0 0.0
2014-Oct-01 05:29N 51°54' E 004°17'0 0.0
2014-Oct-01 04:26N 51°54' E 004°17'0 0.0
2014-Oct-01 03:32N 51°54' E 004°17'0 0.0
2014-Oct-01 02:32N 51°54' E 004°17'0 0.0
2014-Oct-01 01:32N 51°54' E 004°17'0 0.0
2014-Oct-01 00:32N 51°54' E 004°17'0 0.0
2014-Sep-30 23:29N 51°54' E 004°17'0 0.0
2014-Sep-30 22:32N 51°54' E 004°17'0 0.0
2014-Sep-30 21:32N 51°54' E 004°17'0 0.0
2014-Sep-30 20:26N 51°54' E 004°17'0 0.0
2014-Sep-30 19:32N 51°54' E 004°17'0 0.0
2014-Sep-30 18:33N 51°54' E 004°17'0 0.0
2014-Sep-30 17:33N 51°54' E 004°17'0 0.3
2014-Sep-30 16:33N 51°53' E 004°17'0 0.0
2014-Sep-30 15:33N 51°53' E 004°17'0 0.0
2014-Sep-30 14:33N 51°53' E 004°17'0 0.0
2014-Sep-30 13:34N 51°53' E 004°17'0 0.0
2014-Sep-30 12:33N 51°53' E 004°17'0 0.0
2014-Sep-30 11:33N 51°53' E 004°17'0 0.0
2014-Sep-30 10:34N 51°53' E 004°17'4 4.2
2014-Sep-30 09:33N 51°54' E 004°24'3 3.2
2014-Sep-30 08:33N 51°54' E 004°29'0 0.0
2014-Sep-30 07:33N 51°54' E 004°29'0 0.0
2014-Sep-30 06:33N 51°54' E 004°29'0 0.0
2014-Sep-30 05:33N 51°54' E 004°29'0 0.0
2014-Sep-30 04:33N 51°54' E 004°29'0 0.0
2014-Sep-30 03:33N 51°54' E 004°29'0 0.0
2014-Sep-30 02:33N 51°54' E 004°29'0 0.0
2014-Sep-30 01:33N 51°54' E 004°29'0 0.0
2014-Sep-30 00:33N 51°54' E 004°29'1 0.9
2014-Sep-29 23:33N 51°54' E 004°28'6 6.3
2014-Sep-29 22:33N 51°54' E 004°18'9 8.8
2014-Sep-29 21:33N 51°59' E 004°06'1212.4
2014-Sep-29 20:33N 51°60' E 003°46'1716.9
2014-Sep-29 19:32N 51°55' E 003°19'2115.7
2014-Sep-29 18:13N 51°49' E 002°47'1115.8
2014-Sep-29 17:29N 51°42' E 002°31'1716.9
2014-Sep-29 16:30N 51°29' E 002°15'1516.3
2014-Sep-29 15:33N 51°15' E 002°05'1818.4
2014-Sep-29 14:33N 51°05' E 001°41'4518.4
2014-Sep-29 12:06N 50°29' E 000°57'1018.9
2014-Sep-29 11:33N 50°26' E 000°42'  
2014-Sep-26 14:11N 38°28' W 009°47'1116.9
2014-Sep-26 13:33N 38°18' W 009°44'1717.3
2014-Sep-26 12:33N 38°01' W 009°38'1717.4
2014-Sep-26 11:33N 37°44' W 009°33'2117.4
2014-Sep-26 10:21N 37°24' W 009°28'3116.7
2014-Sep-26 08:29N 36°53' W 009°20'1916.2
2014-Sep-26 07:17N 36°42' W 008°60'1216.7
2014-Sep-26 06:33N 36°38' W 008°45'2417.0
2014-Sep-26 05:08N 36°31' W 008°16'1017.4
2014-Sep-26 04:33N 36°28' W 008°05'13117.8
2014-Sep-25 21:12N 36°01' W 005°26'239 7.3
2014-Sep-24 12:32N 37°25' W 000°47'1413.9
2014-Sep-24 11:33N 37°34' W 000°35'1414.0
2014-Sep-24 10:33N 37°45' W 000°24'1613.9
2014-Sep-24 09:24N 37°58' W 000°13'13214.7
2014-Sep-24 00:25N 39°52' E 001°11'1315.3
2014-Sep-23 23:33N 40°04' E 001°20'1514.8
2014-Sep-23 22:33N 40°17' E 001°30'1514.5
2014-Sep-23 21:33N 40°30' E 001°39'1414.5
2014-Sep-23 20:34N 40°42' E 001°48'1414.2
2014-Sep-23 19:33N 40°55' E 001°57'1414.4
2014-Sep-23 18:33N 41°08' E 002°06'36 2.0
2014-Sep-23 00:23N 41°17' E 002°52'5317.5
2014-Sep-22 21:22N 41°17' E 004°02'2117.2
2014-Sep-22 20:09N 41°17' E 004°30'8317.6
2014-Sep-22 15:27N 41°17' E 006°21'2118.1
2014-Sep-22 14:17N 41°17' E 006°49'1818.3
2014-Sep-22 13:19N 41°17' E 007°12'5318.2
2014-Sep-22 10:25N 41°18' E 008°23'  
Track history (hours):
 
Tides and Currents Weather Stations Pressure Air Temp Water Temp Dewpoint Dewpoint Depression Visibility Wind Speed Wind Dir Waves Ship Positions

Oasis of the Seas

Last reported at 2014-Oct-02 03:31 UTC. Time now 2014-Oct-02 04:21 UTC.
Position N 51°54' E 004°17'.

Length 360 m; draft 9.3 m.

Type: Passenger vessel. MMSI: 311020600.

Date/timePositionNaut miles runAvg speedWind from/ knotsBaromVisibWave heightAir tempDewpointWater temp
2014-Oct-02 03:31N 51°54' E 004°17'0 0.0
2014-Oct-02 02:31N 51°54' E 004°17'0 0.0
2014-Oct-02 01:31N 51°54' E 004°17'0 0.0
2014-Oct-02 00:31N 51°54' E 004°17'0 0.0
2014-Oct-01 23:31N 51°54' E 004°17'0 0.0
2014-Oct-01 22:31N 51°54' E 004°17'0 0.0
2014-Oct-01 21:32N 51°54' E 004°17'0 0.0
2014-Oct-01 20:32N 51°54' E 004°17'0 0.0
2014-Oct-01 19:32N 51°54' E 004°17'0 0.0
2014-Oct-01 18:32N 51°54' E 004°17'0 0.0
2014-Oct-01 17:32N 51°54' E 004°17'0 0.0
2014-Oct-01 16:32N 51°54' E 004°17'0 0.0
2014-Oct-01 15:32N 51°54' E 004°17'0 0.0
2014-Oct-01 14:29N 51°54' E 004°17'0 0.0
2014-Oct-01 13:33N 51°54' E 004°17'0 0.0
2014-Oct-01 12:29N 51°54' E 004°17'0 0.0
2014-Oct-01 11:32N 51°54' E 004°17'0 0.0
2014-Oct-01 10:32N 51°54' E 004°17'0 0.0
2014-Oct-01 09:32N 51°54' E 004°17'0 0.0
2014-Oct-01 08:29N 51°54' E 004°17'0 0.0
2014-Oct-01 07:32N 51°54' E 004°17'0 0.0
2014-Oct-01 06:32N 51°54' E 004°17'0 0.0
2014-Oct-01 05:29N 51°54' E 004°17'0 0.0
2014-Oct-01 04:26N 51°54' E 004°17'0 0.0
2014-Oct-01 03:32N 51°54' E 004°17'0 0.0
2014-Oct-01 02:32N 51°54' E 004°17'0 0.0
2014-Oct-01 01:32N 51°54' E 004°17'0 0.0
2014-Oct-01 00:32N 51°54' E 004°17'0 0.0
2014-Sep-30 23:29N 51°54' E 004°17'0 0.0
2014-Sep-30 22:32N 51°54' E 004°17'0 0.0
2014-Sep-30 21:32N 51°54' E 004°17'0 0.0
2014-Sep-30 20:26N 51°54' E 004°17'0 0.0
2014-Sep-30 19:32N 51°54' E 004°17'0 0.0
2014-Sep-30 18:33N 51°54' E 004°17'0 0.0
2014-Sep-30 17:33N 51°54' E 004°17'0 0.3
2014-Sep-30 16:33N 51°53' E 004°17'0 0.0
2014-Sep-30 15:33N 51°53' E 004°17'0 0.0
2014-Sep-30 14:33N 51°53' E 004°17'0 0.0
2014-Sep-30 13:34N 51°53' E 004°17'0 0.0
2014-Sep-30 12:33N 51°53' E 004°17'0 0.0
2014-Sep-30 11:33N 51°53' E 004°17'0 0.0
2014-Sep-30 10:34N 51°53' E 004°17'4 4.2
2014-Sep-30 09:33N 51°54' E 004°24'3 3.2
2014-Sep-30 08:33N 51°54' E 004°29'0 0.0
2014-Sep-30 07:33N 51°54' E 004°29'0 0.0
2014-Sep-30 06:33N 51°54' E 004°29'0 0.0
2014-Sep-30 05:33N 51°54' E 004°29'0 0.0
2014-Sep-30 04:33N 51°54' E 004°29'0 0.0
2014-Sep-30 03:33N 51°54' E 004°29'0 0.0
2014-Sep-30 02:33N 51°54' E 004°29'0 0.0
2014-Sep-30 01:33N 51°54' E 004°29'0 0.0
2014-Sep-30 00:33N 51°54' E 004°29'1 0.9
2014-Sep-29 23:33N 51°54' E 004°28'6 6.3
2014-Sep-29 22:33N 51°54' E 004°18'9 8.8
2014-Sep-29 21:33N 51°59' E 004°06'1212.4
2014-Sep-29 20:33N 51°60' E 003°46'1716.9
2014-Sep-29 19:32N 51°55' E 003°19'2115.7
2014-Sep-29 18:13N 51°49' E 002°47'1115.8
2014-Sep-29 17:29N 51°42' E 002°31'1716.9
2014-Sep-29 16:30N 51°29' E 002°15'1516.3
2014-Sep-29 15:33N 51°15' E 002°05'1818.4
2014-Sep-29 14:33N 51°05' E 001°41'4518.4
2014-Sep-29 12:06N 50°29' E 000°57'1018.9
2014-Sep-29 11:33N 50°26' E 000°42'  
2014-Sep-26 14:11N 38°28' W 009°47'1116.9
2014-Sep-26 13:33N 38°18' W 009°44'1717.3
2014-Sep-26 12:33N 38°01' W 009°38'1717.4
2014-Sep-26 11:33N 37°44' W 009°33'2117.4
2014-Sep-26 10:21N 37°24' W 009°28'3116.7
2014-Sep-26 08:29N 36°53' W 009°20'1916.2
2014-Sep-26 07:17N 36°42' W 008°60'1216.7
2014-Sep-26 06:33N 36°38' W 008°45'2417.0
2014-Sep-26 05:08N 36°31' W 008°16'1017.4
2014-Sep-26 04:33N 36°28' W 008°05'13117.8
2014-Sep-25 21:12N 36°01' W 005°26'239 7.3
2014-Sep-24 12:32N 37°25' W 000°47'1413.9
2014-Sep-24 11:33N 37°34' W 000°35'1414.0
2014-Sep-24 10:33N 37°45' W 000°24'1613.9
2014-Sep-24 09:24N 37°58' W 000°13'13214.7
2014-Sep-24 00:25N 39°52' E 001°11'1315.3
2014-Sep-23 23:33N 40°04' E 001°20'1514.8
2014-Sep-23 22:33N 40°17' E 001°30'1514.5
2014-Sep-23 21:33N 40°30' E 001°39'1414.5
2014-Sep-23 20:34N 40°42' E 001°48'1414.2
2014-Sep-23 19:33N 40°55' E 001°57'1414.4
2014-Sep-23 18:33N 41°08' E 002°06'36 2.0
2014-Sep-23 00:23N 41°17' E 002°52'5317.5
2014-Sep-22 21:22N 41°17' E 004°02'2117.2
2014-Sep-22 20:09N 41°17' E 004°30'8317.6
2014-Sep-22 15:27N 41°17' E 006°21'2118.1
2014-Sep-22 14:17N 41°17' E 006°49'1818.3
2014-Sep-22 13:19N 41°17' E 007°12'5318.2
2014-Sep-22 10:25N 41°18' E 008°23'  

Dump ship's entire track history